Airfield :







YOU CAN JOIN US ON...

 
LOGIN :

Register | Disclaimer

   EN    FR    IT 

 









Legend :    VFR   Marginal VFR   IFR   Intensive IFR   Very Intensive IFR
Visi :
Ceiling :
>= 8 km
>= 3000ft
5 to 8 km
1000 to 3000 ft
1500m to 5 km
500 to 1000 ft
800 to 1500m
200 to 500 ft
< 800m
< 200 ft
Symbols :   Thunderstorms  Fog  Heavy snow  Heavy precipitations  Wind > 20 kt







- Airport Elevation : 266 ft
- IATA code : MHT


KMHT - Manchester

CURRENT METAR :
  • 161453Z 31010KT 10SM SCT042 BKN250 18/07 A3005 RMK AO2 SLP189 T01830067 58007

EXPIRED METARs :
  • 161353Z 32007KT 290V360 10SM FEW043 SCT250 17/07 A3007 RMK AO2 SLP195 T01670067
  • 161253Z 32008KT 10SM BKN140 BKN200 16/07 A3007 RMK AO2 SLP195 T01560072

TAF KMHT
Valid from the 16 at 12:00 until the 17 at 12:00 UTC


161120Z 1612/1712 32003KT P6SM SCT050
FM161500 31008G15KT P6SM SCT045
FM162300 35003KT P6SM SKC
No reported NOTAMs for that airfield.



MET'MAP, your aeronautical weather chart ! - Copyright ORBIFLY December 2007 - Disclaimer

ORBIFLY MET'MAP TEAM :

Programming & Development : Alexandra Zaïnal
Concept & Development : Baudouin d'Aumeries
Co-Development & Prog : Marc-Olivier Méhu
Technical & hardware support : Manuel Goepfert

Contact : metmap@orbifly.com




SOURCES & CREDITS :

   NOAA